createdAt,value
2023-04-19T00:03:48.098Z,355.64
2023-04-19T00:09:50.987Z,355.96
2023-04-19T00:14:25.701Z,355.99
2023-04-19T00:19:33.215Z,356.34
2023-04-19T00:24:40.875Z,356.64
2023-04-19T00:29:49.058Z,356.63
2023-04-19T00:35:05.686Z,356.28
2023-04-19T00:40:13.907Z,356.54
2023-04-19T00:45:34.517Z,356.81
2023-04-19T00:51:45.500Z,357.41
2023-04-19T00:55:55.040Z,357.83
2023-04-19T01:01:40.575Z,358.20
2023-04-19T01:07:18.004Z,358.09
2023-04-19T01:11:45.318Z,358.03
2023-04-19T01:16:53.246Z,358.17
2023-04-19T01:22:11.991Z,358.26
2023-04-19T01:27:24.231Z,358.03
2023-04-19T01:32:38.229Z,358.35
2023-04-19T01:37:45.608Z,358.80
2023-04-19T01:43:28.154Z,359.42
2023-04-19T01:48:43.987Z,359.92
2023-04-19T01:54:00.163Z,360.11
2023-04-19T01:59:06.551Z,360.37
2023-04-19T02:04:49.109Z,360.61
2023-04-19T02:09:56.804Z,360.56
2023-04-19T02:15:44.502Z,360.73
2023-04-19T02:21:26.910Z,360.94
2023-04-19T02:26:34.445Z,361.42
2023-04-19T02:31:49.567Z,361.09
2023-04-19T02:36:57.136Z,361.29
2023-04-19T02:42:44.771Z,361.02
2023-04-19T02:47:52.407Z,361.32
2023-04-19T02:53:16.523Z,361.49
2023-04-19T02:58:25.442Z,361.61
2023-04-19T03:03:39.719Z,361.52
2023-04-19T03:08:53.594Z,361.22
2023-04-19T03:14:01.683Z,361.21
2023-04-19T03:19:29.679Z,361.49
2023-04-19T03:25:08.116Z,361.79
2023-04-19T03:30:15.950Z,361.78
2023-04-19T03:35:31.376Z,362.45
2023-04-19T03:41:21.486Z,363.09
2023-04-19T03:46:40.285Z,363.26
2023-04-19T03:52:22.639Z,363.74
2023-04-19T03:57:37.623Z,363.84
2023-04-19T04:02:42.286Z,363.95
2023-04-19T04:08:05.010Z,364.27
2023-04-19T04:13:12.673Z,363.70
2023-04-19T04:18:41.474Z,363.26
2023-04-19T04:23:34.276Z,363.50
2023-04-19T04:28:42.043Z,363.45
2023-04-19T04:33:49.829Z,363.37
2023-04-19T04:39:35.098Z,362.77
2023-04-19T04:44:51.816Z,362.80
2023-04-19T04:50:05.811Z,362.20
2023-04-19T04:55:22.853Z,362.36
2023-04-19T05:00:45.665Z,362.54
2023-04-19T05:05:53.418Z,361.88
2023-04-19T05:11:02.876Z,362.31
2023-04-19T05:17:04.733Z,362.24
2023-04-19T05:21:30.486Z,361.81
2023-04-19T05:26:55.414Z,361.87
2023-04-19T05:32:08.708Z,361.58
2023-04-19T05:37:26.703Z,361.72
2023-04-19T05:42:37.569Z,362.07
2023-04-19T05:47:51.887Z,361.34
2023-04-19T05:56:11.062Z,361.12
2023-04-19T05:58:45.389Z,361.22
2023-04-19T06:03:53.267Z,361.14
2023-04-19T06:09:35.618Z,360.91
2023-04-19T06:14:43.109Z,361.46
2023-04-19T06:19:50.391Z,361.32
2023-04-19T06:24:57.673Z,361.05
2023-04-19T06:30:04.945Z,360.81
2023-04-19T06:35:12.258Z,361.21
2023-04-19T06:40:19.311Z,361.08
2023-04-19T06:45:26.808Z,360.98
2023-04-19T06:50:34.051Z,361.33
2023-04-19T06:55:41.306Z,360.82
2023-04-19T07:00:48.502Z,360.48
2023-04-19T07:05:55.801Z,360.77
2023-04-19T07:11:03.047Z,360.37
2023-04-19T07:16:10.465Z,360.33
2023-04-19T07:21:17.651Z,360.41
2023-04-19T07:26:24.925Z,360.28
2023-04-19T07:31:32.203Z,360.20
2023-04-19T07:36:39.598Z,360.62
2023-04-19T07:41:46.662Z,361.09
2023-04-19T07:46:54.043Z,361.31
2023-04-19T07:52:01.193Z,361.00
2023-04-19T07:57:08.528Z,361.50
2023-04-19T08:02:15.833Z,360.91
2023-04-19T08:07:23.347Z,360.84
2023-04-19T08:12:37.318Z,360.84
2023-04-19T08:17:42.073Z,361.62
2023-04-19T08:22:45.357Z,361.64
2023-04-19T08:27:52.521Z,362.05
2023-04-19T08:32:59.840Z,362.07
2023-04-19T08:38:07.101Z,362.04
2023-04-19T08:43:14.426Z,361.80
2023-04-19T08:48:21.854Z,362.20
2023-04-19T08:53:29.298Z,362.55
2023-04-19T08:58:54.946Z,363.01
2023-04-19T09:04:00.551Z,362.60
2023-04-19T09:08:58.337Z,363.22
2023-04-19T09:14:16.762Z,363.66
2023-04-19T09:19:25.605Z,364.20
2023-04-19T09:24:57.194Z,364.17
2023-04-19T09:29:47.173Z,364.42
2023-04-19T09:35:06.117Z,365.15
2023-04-19T09:40:20.245Z,366.05
2023-04-19T09:45:32.689Z,366.25
2023-04-19T09:51:15.963Z,367.26
2023-04-19T09:56:29.467Z,366.81
2023-04-19T10:01:36.936Z,367.04
2023-04-19T10:06:58.820Z,367.24
2023-04-19T10:11:54.462Z,366.89
2023-04-19T10:16:59.634Z,367.24
2023-04-19T10:22:07.157Z,367.85
2023-04-19T10:27:14.703Z,368.04
2023-04-19T10:32:22.125Z,367.61
2023-04-19T10:37:29.543Z,368.94
2023-04-19T10:42:37.534Z,369.05
2023-04-19T10:47:51.516Z,370.32
2023-04-19T10:53:04.391Z,371.42
2023-04-19T10:58:12.245Z,372.22
2023-04-19T11:03:20.082Z,373.47
2023-04-19T11:08:27.648Z,373.36
2023-04-19T11:13:38.018Z,373.88
2023-04-19T11:18:45.837Z,374.53
2023-04-19T11:23:53.541Z,374.98
2023-04-19T11:29:01.096Z,374.72
2023-04-19T11:34:09.543Z,375.31
2023-04-19T11:39:17.200Z,375.82
2023-04-19T11:44:24.861Z,375.85
2023-04-19T11:49:32.347Z,376.44
2023-04-19T11:54:40.053Z,376.90
2023-04-19T11:59:47.543Z,377.17
2023-04-19T12:04:58.419Z,376.78
2023-04-19T12:10:05.722Z,377.56
2023-04-19T12:15:17.053Z,376.93
2023-04-19T12:20:24.422Z,377.60
2023-04-19T12:25:31.822Z,377.79
2023-04-19T12:30:39.608Z,377.24
2023-04-19T12:35:46.874Z,377.31
2023-04-19T12:40:54.161Z,377.85
2023-04-19T12:46:01.891Z,377.91
2023-04-19T12:51:09.043Z,378.22
2023-04-19T12:56:16.306Z,378.91
2023-04-19T13:01:23.630Z,379.00
2023-04-19T13:06:30.647Z,379.69
2023-04-19T13:11:37.950Z,380.11
2023-04-19T13:16:45.259Z,380.94
2023-04-19T13:21:52.441Z,381.07
2023-04-19T13:26:59.632Z,381.89
2023-04-19T13:32:06.820Z,382.35
2023-04-19T13:37:13.973Z,382.89
2023-04-19T13:42:21.242Z,383.07
2023-04-19T13:47:28.632Z,384.32
2023-04-19T13:52:35.845Z,384.55
2023-04-19T13:57:43.165Z,385.07
2023-04-19T14:02:52.345Z,385.01
2023-04-19T14:07:57.701Z,385.67
2023-04-19T14:13:04.880Z,386.64
2023-04-19T14:18:12.174Z,387.06
2023-04-19T14:23:19.264Z,387.17
2023-04-19T14:28:26.531Z,387.46
2023-04-19T14:33:33.810Z,387.96
2023-04-19T14:38:41.087Z,388.20
2023-04-19T14:43:48.315Z,388.36
2023-04-19T14:48:55.511Z,388.62
2023-04-19T14:54:02.765Z,389.16
2023-04-19T14:59:09.971Z,389.42
2023-04-19T15:04:17.511Z,389.26
2023-04-19T15:09:24.675Z,389.42
2023-04-19T15:14:31.796Z,389.50
2023-04-19T15:19:39.006Z,389.00
2023-04-19T15:24:46.165Z,389.39
2023-04-19T15:29:53.351Z,389.27
2023-04-19T15:35:00.589Z,389.30
2023-04-19T15:40:07.752Z,389.49
2023-04-19T15:45:14.998Z,389.43
2023-04-19T15:50:22.203Z,389.51
2023-04-19T15:55:29.426Z,389.32
2023-04-19T16:00:36.733Z,389.18
2023-04-19T16:05:44.816Z,389.76
2023-04-19T16:10:52.155Z,390.00
2023-04-19T16:15:59.322Z,390.17
2023-04-19T16:21:06.481Z,390.94
2023-04-19T16:26:13.745Z,391.02
2023-04-19T16:31:21.103Z,391.63
2023-04-19T16:36:28.196Z,391.73
2023-04-19T16:41:35.377Z,392.28
2023-04-19T16:46:42.654Z,392.53
2023-04-19T16:51:50.189Z,393.04
2023-04-19T16:56:57.421Z,393.43
2023-04-19T17:02:05.023Z,393.98
2023-04-19T17:07:12.185Z,394.04
2023-04-19T17:12:19.421Z,394.14
2023-04-19T17:17:26.724Z,393.81
2023-04-19T17:22:33.997Z,392.97
2023-04-19T17:27:41.220Z,392.73
2023-04-19T17:32:48.758Z,391.97
2023-04-19T17:37:56.404Z,391.55
2023-04-19T17:43:04.184Z,390.52
2023-04-19T17:48:11.586Z,390.50
2023-04-19T17:53:19.096Z,389.94
2023-04-19T17:58:26.808Z,389.94
2023-04-19T18:03:34.539Z,390.09
2023-04-19T18:08:42.295Z,389.33
2023-04-19T18:13:49.748Z,389.12
2023-04-19T18:18:57.080Z,389.58
2023-04-19T18:24:04.616Z,388.35
2023-04-19T18:29:13.385Z,388.22
2023-04-19T18:34:21.124Z,387.99
2023-04-19T18:39:29.022Z,387.43
2023-04-19T18:49:52.742Z,386.99
2023-04-19T18:54:51.403Z,387.01
2023-04-19T18:59:58.778Z,386.86
2023-04-19T19:05:07.267Z,386.56
2023-04-19T19:10:18.911Z,386.71
2023-04-19T19:15:22.039Z,385.96
2023-04-19T19:20:29.656Z,385.52
2023-04-19T19:25:37.150Z,384.84
2023-04-19T19:30:44.517Z,384.52
2023-04-19T19:35:52.196Z,384.16
2023-04-19T19:41:49.038Z,383.61
2023-04-19T19:46:08.433Z,383.43
2023-04-19T19:51:47.640Z,383.73
2023-04-19T19:56:24.531Z,383.80
2023-04-19T20:01:31.884Z,384.30
2023-04-19T20:07:24.876Z,384.70
2023-04-19T20:11:46.956Z,384.51
2023-04-19T20:16:54.650Z,385.11
2023-04-19T20:22:02.357Z,384.82
2023-04-19T20:27:09.969Z,384.52
2023-04-19T20:32:17.762Z,384.77
2023-04-19T20:37:25.406Z,384.27
2023-04-19T20:42:33.154Z,384.17
2023-04-19T20:47:40.558Z,384.61
2023-04-19T20:52:47.995Z,385.04
2023-04-19T20:57:55.507Z,385.44
2023-04-19T21:03:03.072Z,386.07
2023-04-19T21:08:10.185Z,385.77
2023-04-19T21:13:17.468Z,385.98
2023-04-19T21:18:24.723Z,385.92
2023-04-19T21:23:32.227Z,386.20
2023-04-19T21:28:39.549Z,386.13
2023-04-19T21:33:46.794Z,386.63
2023-04-19T21:38:53.969Z,386.89
2023-04-19T21:44:01.311Z,386.87
2023-04-19T21:49:08.650Z,387.63
2023-04-19T21:54:26.474Z,387.57
2023-04-19T21:59:23.151Z,387.83
2023-04-19T22:04:30.290Z,387.53
2023-04-19T22:09:37.568Z,387.56
2023-04-19T22:14:44.814Z,387.86
2023-04-19T22:19:52.061Z,388.09
2023-04-19T22:24:59.541Z,388.56
2023-04-19T22:30:06.751Z,388.59
2023-04-19T22:35:13.921Z,388.95
2023-04-19T22:40:21.132Z,388.79
2023-04-19T22:45:28.437Z,389.30
2023-04-19T22:50:35.771Z,389.70
2023-04-19T22:55:43.032Z,390.31
2023-04-19T23:00:50.251Z,390.77
2023-04-19T23:05:57.482Z,391.48
2023-04-19T23:11:04.730Z,392.23
2023-04-19T23:16:12.112Z,392.50
2023-04-19T23:21:19.306Z,392.76
2023-04-19T23:26:26.563Z,393.37
2023-04-19T23:31:34.157Z,393.50
2023-04-19T23:36:46.282Z,394.25
2023-04-19T23:42:09.963Z,394.83
2023-04-19T23:47:24.254Z,394.88
2023-04-19T23:52:31.847Z,395.48
2023-04-19T23:57:40.936Z,395.72
